Time;durP1;ratioP1;P1;durP2;ratioP2;P2;SDS_P1;SDS_P2;PMS_P1;PMS_P2;Temp;Humidity;BMP_temperature;BMP_pressure;BME280_temperature;BME280_humidity;BME280_pressure;Samples;Min_cycle;Max_cycle;Signal;HPM_P1;HPM_P2
2021/03/17 00:05:47;;;;;;;5.82;3.67;;;;;;;2.58;70.48;97865.56;10169905;29;20385;-79
2021/03/17 00:11:26;;;;;;;6.80;4.22;;;;;;;2.60;70.15;97873.28;10178263;29;20040;-79
2021/03/17 00:17:05;;;;;;;8.60;4.63;;;;;;;2.59;70.42;97860.78;10166789;29;20048;-79
2021/03/17 00:22:43;;;;;;;6.85;4.70;;;;;;;2.56;70.75;97867.38;10166747;29;20044;-79
2021/03/17 00:28:22;;;;;;;7.35;4.63;;;;;;;2.58;70.96;97860.06;10166227;29;20058;-79
2021/03/17 00:34:01;;;;;;;8.52;4.95;;;;;;;2.58;71.14;97851.78;10165370;29;20052;-78
2021/03/17 00:39:39;;;;;;;7.88;4.88;;;;;;;2.54;71.08;97856.16;10183598;29;20047;-78
2021/03/17 00:45:18;;;;;;;10.10;5.75;;;;;;;2.58;70.75;97843.53;10162950;29;20055;-78
2021/03/17 00:50:57;;;;;;;6.28;4.88;;;;;;;2.67;71.08;97850.56;10165995;29;20048;-78
2021/03/17 00:56:20;;;;;;;9.77;5.78;;;;;;;2.72;70.88;97837.94;10176163;29;20088;-78
2021/03/17 01:01:40;;;;;;;8.35;5.10;;;;;;;2.78;71.39;97838.53;10162834;29;20044;-78
2021/03/17 01:07:00;;;;;;;6.03;4.47;;;;;;;2.84;70.83;97836.38;10149031;29;20108;-78
2021/03/17 01:12:20;;;;;;;7.80;4.45;;;;;;;2.91;71.15;97841.22;10162207;29;20047;-79
2021/03/17 01:17:40;;;;;;;6.55;3.80;;;;;;;2.98;70.88;97837.03;10175591;29;20052;-78
2021/03/17 01:23:00;;;;;;;6.20;3.92;;;;;;;3.00;70.84;97831.72;10148711;29;20087;-79
2021/03/17 01:28:20;;;;;;;5.82;3.42;;;;;;;3.01;71.00;97827.69;10162156;29;20056;-79
2021/03/17 01:33:40;;;;;;;7.78;3.08;;;;;;;3.02;70.98;97840.94;10161672;29;20055;-77
2021/03/17 01:38:59;;;;;;;7.10;3.80;;;;;;;3.17;70.94;97846.53;10162530;29;20055;-78
2021/03/17 01:44:19;;;;;;;7.15;3.72;;;;;;;3.26;70.87;97845.28;10161289;29;20055;-78
2021/03/17 01:49:39;;;;;;;5.95;4.15;;;;;;;3.28;70.78;97850.25;10161511;29;20040;-79
2021/03/17 01:54:59;;;;;;;7.28;4.55;;;;;;;3.28;70.91;97845.50;10148767;29;20056;-79
2021/03/17 02:00:19;;;;;;;8.25;4.40;;;;;;;3.24;70.88;97849.88;10109087;29;20045;-79
2021/03/17 02:05:44;;;;;;;5.47;3.55;;;;;;;3.22;71.25;97836.63;10108992;29;20044;-78
2021/03/17 02:11:05;;;;;;;7.63;4.20;;;;;;;3.22;70.48;97844.19;10122068;29;20136;-78
2021/03/17 02:16:49;;;;;;;9.45;3.78;;;;;;;3.22;71.35;97846.94;10135399;29;20041;-78
2021/03/17 02:22:32;;;;;;;7.07;4.03;;;;;;;3.31;71.21;97847.19;10122441;29;20064;-78
2021/03/17 02:28:14;;;;;;;8.35;4.72;;;;;;;3.30;70.75;97850.47;10122950;29;20044;-79
2021/03/17 02:34:00;;;;;;;6.13;4.50;;;;;;;3.23;71.29;97848.41;10134993;29;20381;-79
2021/03/17 02:39:34;;;;;;;5.47;3.65;;;;;;;3.17;71.10;97852.03;10135041;29;20049;-78
2021/03/17 02:45:06;;;;;;;5.18;3.13;;;;;;;3.13;70.90;97850.91;10117993;29;20045;-78
2021/03/17 02:50:26;;;;;;;4.38;2.55;;;;;;;3.09;71.10;97851.28;10116524;29;20044;-79
2021/03/17 02:55:50;;;;;;;4.30;2.50;;;;;;;2.98;70.94;97851.53;10129099;29;20045;-79
2021/03/17 03:01:15;;;;;;;4.30;2.45;;;;;;;2.91;71.28;97849.50;10116191;29;20052;-78
2021/03/17 03:06:37;;;;;;;4.63;2.15;;;;;;;2.93;71.63;97851.69;10115631;29;20112;-79
2021/03/17 03:11:58;;;;;;;3.47;2.40;;;;;;;2.93;71.66;97852.44;10128155;29;20051;-78
2021/03/17 03:17:17;;;;;;;3.83;2.35;;;;;;;2.91;71.17;97846.72;10115030;29;20052;-79
2021/03/17 03:22:40;;;;;;;2.85;2.20;;;;;;;2.82;71.75;97850.72;10127467;29;20037;-78
2021/03/17 03:28:11;;;;;;;3.97;2.53;;;;;;;2.74;72.14;97854.69;10127168;29;20044;-78
2021/03/17 03:33:30;;;;;;;3.08;2.42;;;;;;;2.73;71.87;97848.44;10128503;29;20523;-78
2021/03/17 03:38:50;;;;;;;3.47;2.08;;;;;;;2.68;72.13;97860.31;10113573;29;20049;-78
2021/03/17 03:44:10;;;;;;;4.30;2.58;;;;;;;2.70;72.04;97860.53;10126724;29;20041;-78
2021/03/17 03:49:30;;;;;;;3.22;2.28;;;;;;;2.70;72.12;97863.31;10126157;29;20045;-79
2021/03/17 03:55:20;;;;;;;3.85;2.50;;;;;;;2.70;72.21;97874.31;10112827;29;20049;-78
2021/03/17 04:00:41;;;;;;;5.47;2.78;;;;;;;2.62;72.22;97870.03;10117962;29;20060;-78
2021/03/17 04:06:00;;;;;;;3.85;2.97;;;;;;;2.46;72.13;97869.88;10126034;29;20044;-78
2021/03/17 04:11:20;;;;;;;5.82;3.03;;;;;;;2.33;72.33;97860.94;10125736;29;20064;-78
2021/03/17 04:16:40;;;;;;;6.22;2.97;;;;;;;2.23;73.04;97868.91;10112338;29;20052;-78
2021/03/17 04:22:01;;;;;;;5.30;3.00;;;;;;;2.15;72.74;97865.34;10112798;29;20139;-79
2021/03/17 04:27:20;;;;;;;3.85;2.90;;;;;;;2.08;73.23;97874.25;10126762;29;20508;-79
2021/03/17 04:32:42;;;;;;;4.93;3.08;;;;;;;2.12;72.99;97864.38;10127186;29;20176;-78
2021/03/17 04:38:02;;;;;;;5.68;3.30;;;;;;;2.21;72.75;97869.44;10112754;29;20111;-79
2021/03/17 04:43:22;;;;;;;5.38;3.40;;;;;;;2.25;73.20;97875.38;10125462;29;20052;-80
2021/03/17 04:48:43;;;;;;;6.03;3.47;;;;;;;2.28;73.10;97887.31;10124975;29;20075;-79
2021/03/17 04:54:04;;;;;;;5.45;3.05;;;;;;;2.27;72.91;97875.56;10124494;29;20044;-78
2021/03/17 04:59:24;;;;;;;7.47;3.40;;;;;;;2.37;73.36;97889.63;10124458;29;20053;-79
2021/03/17 05:04:44;;;;;;;4.40;3.50;;;;;;;2.44;73.14;97880.69;10145579;29;20040;-78
2021/03/17 05:10:05;;;;;;;5.85;3.63;;;;;;;2.39;72.59;97873.28;10174410;29;20044;-78
2021/03/17 05:15:25;;;;;;;4.93;3.28;;;;;;;2.23;72.96;97880.69;10161505;29;20090;-79
2021/03/17 05:20:48;;;;;;;5.18;3.40;;;;;;;2.10;73.07;97882.72;10161384;29;20056;-79
2021/03/17 05:26:08;;;;;;;5.20;3.38;;;;;;;2.12;73.02;97886.41;10132176;29;20096;-79
2021/03/17 05:31:27;;;;;;;5.05;3.50;;;;;;;2.29;73.48;97877.78;10134256;29;20040;-79
2021/03/17 05:36:48;;;;;;;6.68;3.88;;;;;;;2.56;73.39;97878.41;10131413;29;20416;-80
2021/03/17 05:42:07;;;;;;;6.97;3.72;;;;;;;2.94;72.84;97878.00;10123303;29;20059;-80
2021/03/17 05:47:27;;;;;;;6.60;3.58;;;;;;;3.30;72.50;97887.09;10137647;29;20049;-79
2021/03/17 05:52:47;;;;;;;8.93;4.05;;;;;;;3.35;71.96;97890.97;10160009;29;20095;-79
2021/03/17 05:58:06;;;;;;;6.60;4.07;;;;;;;3.33;71.97;97908.06;10142360;29;20175;-79
2021/03/17 06:03:27;;;;;;;6.32;4.72;;;;;;;3.30;72.28;97908.41;10147048;29;20048;-80
2021/03/17 06:08:47;;;;;;;7.15;4.68;;;;;;;3.31;72.49;97920.94;10153713;29;20045;-78
2021/03/17 06:14:08;;;;;;;12.35;4.20;;;;;;;3.34;71.88;97919.84;10134664;29;20044;-77
2021/03/17 06:19:28;;;;;;;5.85;4.60;;;;;;;3.44;71.71;97918.06;10162198;29;20103;-79
2021/03/17 06:24:48;;;;;;;5.63;4.18;;;;;;;3.70;72.38;97917.13;10148020;29;20487;-80
2021/03/17 06:30:10;;;;;;;6.63;3.95;;;;;;;3.78;71.62;97930.97;10147763;29;20041;-78
2021/03/17 06:35:30;;;;;;;9.45;4.20;;;;;;;3.94;71.09;97938.78;10156421;29;20078;-78
2021/03/17 06:40:57;;;;;;;8.70;3.80;;;;;;;4.25;71.43;97939.66;10182251;29;20048;-78
2021/03/17 06:46:19;;;;;;;8.75;3.90;;;;;;;4.62;71.18;97945.81;10168790;29;20048;-79
2021/03/17 06:51:39;;;;;;;6.68;4.47;;;;;;;4.73;70.53;97945.50;10138860;29;20040;-79
2021/03/17 06:56:59;;;;;;;6.20;4.05;;;;;;;4.58;69.97;97943.44;10188647;29;20048;-78
2021/03/17 07:02:19;;;;;;;6.82;4.20;;;;;;;4.64;70.02;97946.03;10168715;29;20072;-79
2021/03/17 07:07:51;;;;;;;7.50;4.32;;;;;;;4.54;70.26;97950.63;10180280;29;20507;-79
2021/03/17 07:13:15;;;;;;;9.60;5.47;;;;;;;4.62;70.08;97953.38;10182481;29;20055;-79
2021/03/17 07:18:34;;;;;;;9.57;6.15;;;;;;;4.53;69.73;97951.88;10167466;29;20529;-79
2021/03/17 07:23:54;;;;;;;9.00;5.57;;;;;;;4.63;70.27;97952.09;10160870;29;20056;-79
2021/03/17 07:29:16;;;;;;;8.98;5.38;;;;;;;4.68;70.17;97963.00;10180772;29;20055;-80
2021/03/17 07:34:35;;;;;;;7.20;5.00;;;;;;;4.77;69.54;97951.41;10181785;29;20061;-80
2021/03/17 07:39:58;;;;;;;7.78;5.47;;;;;;;4.43;69.44;97956.47;10166908;29;20052;-79
2021/03/17 07:45:17;;;;;;;9.63;6.68;;;;;;;4.11;69.59;97949.34;10136124;29;20055;-79
2021/03/17 07:50:40;;;;;;;8.93;6.45;;;;;;;4.77;69.55;97950.66;10144076;29;20044;-82
2021/03/17 07:56:00;;;;;;;9.13;5.15;;;;;;;5.52;69.80;97946.44;10130315;29;20044;-81
2021/03/17 08:01:23;;;;;;;6.70;4.35;;;;;;;6.55;69.50;97954.78;10142792;29;20051;-80
2021/03/17 08:06:43;;;;;;;7.80;4.32;;;;;;;7.15;67.91;97961.28;10153270;29;20048;-80
2021/03/17 08:12:11;;;;;;;5.95;3.60;;;;;;;8.19;66.99;97964.16;10152947;29;20488;-80
2021/03/17 08:17:33;;;;;;;6.30;3.10;;;;;;;9.57;66.33;97959.47;10170721;29;20099;-81
2021/03/17 08:22:53;;;;;;;4.95;2.88;;;;;;;10.10;62.57;97949.38;10181466;29;20040;-80
2021/03/17 08:28:23;;;;;;;5.43;3.05;;;;;;;10.56;63.46;97955.53;10164084;29;20044;-79
2021/03/17 08:33:43;;;;;;;6.60;3.30;;;;;;;11.67;63.13;97958.16;10165274;29;20060;-79
2021/03/17 08:39:03;;;;;;;7.20;3.72;;;;;;;11.42;58.56;97950.25;10150484;29;20052;-79
2021/03/17 08:44:28;;;;;;;6.10;3.60;;;;;;;10.01;58.77;97962.72;10141021;29;20040;-79
2021/03/17 08:49:52;;;;;;;5.40;3.75;;;;;;;9.14;59.67;97967.38;10136869;29;20040;-79
2021/03/17 08:55:41;;;;;;;4.63;3.20;;;;;;;8.30;59.35;97958.13;10163657;29;20473;-79
2021/03/17 09:01:02;;;;;;;5.53;2.97;;;;;;;9.01;60.78;97960.16;10163427;29;20756;-80
2021/03/17 09:06:28;;;;;;;3.67;2.72;;;;;;;9.68;59.26;97967.25;10162744;29;20107;-79
2021/03/17 09:11:48;;;;;;;4.07;2.65;;;;;;;9.09;58.02;97960.03;10162560;29;20055;-79
2021/03/17 09:17:21;;;;;;;6.78;2.08;;;;;;;8.54;58.07;97962.09;10176018;29;20051;-79
2021/03/17 09:22:43;;;;;;;3.05;1.92;;;;;;;8.41;57.04;97968.03;10175560;29;20044;-79
2021/03/17 09:28:27;;;;;;;1.92;1.15;;;;;;;8.32;57.73;97969.41;10149328;29;20068;-79
2021/03/17 09:33:47;;;;;;;4.07;1.63;;;;;;;8.29;57.19;97973.31;10165259;29;20064;-79
2021/03/17 09:39:07;;;;;;;3.35;1.55;;;;;;;8.20;57.04;97976.78;10162491;29;20048;-79
2021/03/17 09:44:27;;;;;;;2.17;1.60;;;;;;;8.15;56.96;97974.22;10164289;29;20064;-80
2021/03/17 09:49:47;;;;;;;3.15;2.00;;;;;;;7.96;56.75;97966.47;10175229;29;20040;-79
2021/03/17 09:55:08;;;;;;;3.00;2.05;;;;;;;7.57;56.48;97968.88;10188364;29;20051;-79
2021/03/17 10:00:28;;;;;;;4.00;1.90;;;;;;;7.21;56.63;97972.13;10162315;29;20100;-80
2021/03/17 10:05:48;;;;;;;5.43;2.00;;;;;;;8.19;56.57;97972.50;10174582;29;20164;-79
2021/03/17 10:11:15;;;;;;;6.57;1.88;;;;;;;9.11;55.65;97979.69;10165436;29;20044;-79
2021/03/17 10:16:34;;;;;;;3.72;1.50;;;;;;;10.55;54.51;97972.88;10162043;29;20044;-78
2021/03/17 10:21:58;;;;;;;3.38;1.40;;;;;;;10.67;52.79;97959.78;10169194;29;20049;-79
2021/03/17 10:27:19;;;;;;;4.57;1.35;;;;;;;10.43;52.33;97964.38;10173216;29;20197;-77
2021/03/17 10:32:42;;;;;;;24.42;2.95;;;;;;;10.23;52.38;97954.53;10212263;23;20057;-79
2021/03/17 10:38:02;;;;;;;5.35;1.30;;;;;;;10.15;51.90;97959.53;10181368;23;20060;-78
2021/03/17 10:49:07;;;;;;;3.20;1.25;;;;;;;11.30;49.62;97960.59;10695455;23;20110;-80
2021/03/17 10:54:37;;;;;;;3.15;1.10;;;;;;;11.29;49.44;97962.66;10228773;29;20047;-78
2021/03/17 11:05:37;;;;;;;2.28;0.90;;;;;;;11.21;48.68;97959.31;10076821;29;20053;-81
2021/03/17 11:10:57;;;;;;;4.72;1.67;;;;;;;11.40;47.23;97958.50;10062804;29;20057;-80
2021/03/17 11:16:20;;;;;;;5.38;1.27;;;;;;;11.73;47.23;97969.78;10039230;29;20093;-78
2021/03/17 11:21:40;;;;;;;4.15;1.92;;;;;;;11.60;46.56;97954.25;10064321;29;20106;-78
2021/03/17 11:27:00;;;;;;;3.28;1.20;;;;;;;11.20;46.22;97971.81;10025640;29;20045;-78
2021/03/17 11:32:19;;;;;;;4.88;1.60;;;;;;;10.60;45.54;97966.25;10047619;29;20050;-79
2021/03/17 11:37:40;;;;;;;3.35;1.45;;;;;;;10.35;46.14;97968.63;10037715;29;20094;-79
2021/03/17 11:43:15;;;;;;;4.57;1.25;;;;;;;10.19;45.65;97973.75;10049874;29;20045;-78
2021/03/17 11:48:35;;;;;;;3.55;1.45;;;;;;;9.98;45.84;97977.84;10025451;29;20053;-78
2021/03/17 11:53:55;;;;;;;3.10;1.65;;;;;;;9.94;45.85;97972.00;10023483;29;20052;-78
2021/03/17 11:59:15;;;;;;;2.65;1.50;;;;;;;9.86;45.58;97976.25;10023584;29;20063;-78
2021/03/17 12:04:35;;;;;;;4.20;1.67;;;;;;;9.94;45.53;97960.06;10024270;29;20054;-81
2021/03/17 12:09:55;;;;;;;3.70;1.60;;;;;;;10.65;44.90;97967.28;10070184;29;20045;-82
2021/03/17 12:15:21;;;;;;;4.20;1.38;;;;;;;10.95;44.26;97952.66;10124456;23;20101;-80
2021/03/17 12:20:41;;;;;;;3.55;1.30;;;;;;;10.97;44.06;97958.38;10111717;29;20254;-79
2021/03/17 12:26:01;;;;;;;3.38;1.55;;;;;;;10.75;43.89;97956.81;10099071;29;20049;-79
2021/03/17 12:31:20;;;;;;;9.02;1.73;;;;;;;10.70;43.63;97963.44;10124762;29;20453;-79
2021/03/17 12:36:42;;;;;;;4.43;1.55;;;;;;;10.55;43.71;97959.66;10124987;29;20409;-78
2021/03/17 12:42:02;;;;;;;3.05;1.60;;;;;;;9.61;43.98;97971.63;10111161;29;20040;-78
2021/03/17 12:47:22;;;;;;;4.13;1.63;;;;;;;8.82;45.01;97974.72;10124056;29;20407;-79
2021/03/17 12:52:42;;;;;;;2.60;1.70;;;;;;;8.59;45.44;97972.25;10105347;29;20077;-80
2021/03/17 12:58:02;;;;;;;3.85;1.52;;;;;;;8.39;45.41;97967.84;10098531;29;20056;-79
2021/03/17 13:03:23;;;;;;;5.25;1.50;;;;;;;7.87;46.04;97972.66;10110962;29;20048;-80
2021/03/17 13:08:43;;;;;;;2.60;1.50;;;;;;;7.44;46.25;97972.69;10073056;29;20048;-80
2021/03/17 13:14:04;;;;;;;2.92;1.40;;;;;;;7.61;47.36;97965.69;10082404;29;20049;-80
2021/03/17 13:19:24;;;;;;;3.65;1.50;;;;;;;8.02;46.96;97972.53;10099252;29;20063;-81
2021/03/17 13:24:44;;;;;;;2.58;1.55;;;;;;;7.85;46.69;97978.06;11782856;23;20082;-79
2021/03/17 13:30:08;;;;;;;2.78;1.60;;;;;;;7.49;47.43;97979.31;10050978;29;20048;-78
2021/03/17 13:35:28;;;;;;;2.37;1.40;;;;;;;7.04;48.01;97989.47;10055850;29;20215;-80
2021/03/17 13:40:49;;;;;;;2.75;1.50;;;;;;;6.81;48.80;97980.53;10219661;23;20304;-80
2021/03/17 13:46:41;;;;;;;3.70;1.83;;;;;;;6.67;49.96;97990.44;11038092;23;21366;31
2021/03/17 13:52:06;;;;;;;2.00;1.60;;;;;;;6.63;49.44;97987.31;10103038;29;20053;-80
2021/03/17 13:57:32;;;;;;;3.72;2.00;;;;;;;6.39;50.94;97997.03;10114852;29;20056;-80
2021/03/17 14:02:51;;;;;;;4.18;2.25;;;;;;;6.21;50.96;97993.41;10120467;29;20025;-82
2021/03/17 14:08:11;;;;;;;4.75;1.98;;;;;;;5.96;51.82;97996.78;10069162;29;20109;-79
2021/03/17 14:13:31;;;;;;;4.93;2.28;;;;;;;5.73;52.24;98001.59;10038464;29;20052;-79
2021/03/17 14:18:51;;;;;;;3.35;2.13;;;;;;;5.90;52.79;98004.56;10042005;29;20038;-79
2021/03/17 14:24:11;;;;;;;4.68;2.30;;;;;;;6.16;53.83;98008.91;10043785;29;20125;-79
2021/03/17 14:29:31;;;;;;;2.97;2.33;;;;;;;6.20;53.02;98008.56;10042912;29;20053;-79
2021/03/17 14:34:51;;;;;;;3.55;2.55;;;;;;;5.87;54.10;98010.44;10030625;29;20049;-79
2021/03/17 14:40:12;;;;;;;5.65;2.65;;;;;;;5.52;54.12;98012.16;10057544;29;20050;-79
2021/03/17 14:45:32;;;;;;;4.45;2.78;;;;;;;5.45;55.23;98014.34;10052697;29;20052;-79
2021/03/17 14:50:52;;;;;;;4.35;2.90;;;;;;;5.44;57.14;98023.22;10043821;29;20117;-79
2021/03/17 14:56:12;;;;;;;3.17;2.17;;;;;;;5.42;55.37;98012.69;10039114;29;20049;-79
2021/03/17 15:01:31;;;;;;;4.30;2.90;;;;;;;5.62;55.89;98029.69;10051784;29;20117;-78
2021/03/17 15:06:51;;;;;;;5.78;3.08;;;;;;;5.65;56.15;98020.25;10038703;29;20062;-78
2021/03/17 15:12:13;;;;;;;4.13;2.95;;;;;;;5.52;56.85;98026.72;10038883;29;20061;-79
2021/03/17 15:17:33;;;;;;;5.50;2.90;;;;;;;5.34;57.23;98028.56;10038774;29;20046;-79
2021/03/17 15:22:53;;;;;;;4.40;3.33;;;;;;;5.25;57.77;98034.66;10037848;29;20046;-78
2021/03/17 15:28:13;;;;;;;4.20;2.92;;;;;;;5.00;57.73;98037.19;10025194;29;20421;-78
2021/03/17 15:33:33;;;;;;;4.63;3.53;;;;;;;4.83;58.41;98042.50;10037306;29;20050;-78
2021/03/17 15:38:53;;;;;;;4.63;3.80;;;;;;;4.70;59.36;98048.91;10039263;29;20051;-79
2021/03/17 15:44:12;;;;;;;4.78;3.58;;;;;;;4.53;59.23;98052.16;10053221;29;20045;-80
2021/03/17 15:49:32;;;;;;;4.85;3.50;;;;;;;4.43;59.58;98050.44;10038547;29;20078;-80
2021/03/17 15:54:52;;;;;;;4.93;3.70;;;;;;;4.31;59.67;98053.53;10038397;29;20049;-80
2021/03/17 16:00:16;;;;;;;5.68;3.65;;;;;;;4.48;60.65;98061.34;10055277;29;20049;-81
2021/03/17 16:05:37;;;;;;;6.53;3.80;;;;;;;4.69;60.50;98055.72;10214529;23;20507;-81
2021/03/17 16:10:57;;;;;;;4.40;3.25;;;;;;;4.87;60.88;98065.00;10224666;29;20066;-81
2021/03/17 16:16:18;;;;;;;3.97;3.15;;;;;;;4.94;60.22;98075.34;10227700;29;20055;-80
2021/03/17 16:21:39;;;;;;;4.53;3.78;;;;;;;4.72;61.36;98073.22;10224241;29;20043;-81
2021/03/17 16:26:59;;;;;;;4.45;3.17;;;;;;;4.51;61.01;98076.09;10224776;29;20174;-81
2021/03/17 16:32:22;;;;;;;4.00;2.90;;;;;;;4.35;62.16;98082.84;10230580;29;20043;-81
2021/03/17 16:37:42;;;;;;;5.13;3.22;;;;;;;4.16;62.13;98088.63;10213217;29;20044;-82
2021/03/17 16:43:06;;;;;;;3.92;3.30;;;;;;;4.02;62.38;98099.75;10203323;29;20050;-80
2021/03/17 16:48:26;;;;;;;4.85;3.63;;;;;;;3.85;63.16;98095.94;10165439;29;20484;-79
2021/03/17 16:53:46;;;;;;;5.10;3.45;;;;;;;3.71;63.11;98101.56;10163141;29;20048;-79
2021/03/17 16:59:05;;;;;;;4.68;3.50;;;;;;;3.70;64.18;98097.31;10149956;29;20047;-78
2021/03/17 17:04:25;;;;;;;4.93;3.83;;;;;;;3.63;64.03;98105.53;10149571;29;20060;-78
2021/03/17 17:09:45;;;;;;;4.00;3.25;;;;;;;3.49;64.00;98104.13;10202109;29;20044;-76
2021/03/17 17:15:08;;;;;;;5.57;3.75;;;;;;;3.44;64.30;98108.50;10176748;29;20055;-79
2021/03/17 17:20:29;;;;;;;6.45;3.65;;;;;;;3.34;64.74;98118.50;10170851;29;20095;-79
2021/03/17 17:25:49;;;;;;;4.68;3.40;;;;;;;3.22;65.13;98117.28;10173889;29;20044;-77
2021/03/17 17:31:09;;;;;;;5.93;3.42;;;;;;;3.11;65.49;98132.81;10162487;29;20040;-79
2021/03/17 17:36:30;;;;;;;5.85;3.85;;;;;;;3.08;65.74;98133.13;10166936;29;20415;-80
2021/03/17 17:41:49;;;;;;;6.07;4.03;;;;;;;2.96;65.61;98145.69;10180692;29;20052;-83
2021/03/17 17:47:10;;;;;;;5.13;3.65;;;;;;;2.78;66.33;98150.78;11020379;23;20052;-78
2021/03/17 17:52:30;;;;;;;4.85;3.33;;;;;;;2.66;66.78;98157.81;11602854;23;20181;-83
2021/03/17 17:57:50;;;;;;;5.05;3.55;;;;;;;2.63;66.83;98150.63;10498309;23;20049;-84
2021/03/17 18:03:11;;;;;;;6.18;3.20;;;;;;;2.66;66.78;98155.06;10807949;23;20055;-84
2021/03/17 18:08:42;;;;;;;5.25;3.53;;;;;;;2.68;66.84;98151.75;10511428;23;20042;-85
2021/03/17 18:14:03;;;;;;;4.72;3.58;;;;;;;2.76;66.62;98158.88;10388819;23;20088;-81
2021/03/17 18:19:23;;;;;;;5.68;3.58;;;;;;;2.76;67.13;98163.63;10506257;23;20052;-83
2021/03/17 18:24:43;;;;;;;5.63;3.67;;;;;;;2.84;67.10;98178.28;10202999;29;20505;-79
2021/03/17 18:30:07;;;;;;;7.05;3.80;;;;;;;2.81;67.47;98174.56;10142895;29;20044;-79
2021/03/17 18:35:29;;;;;;;5.67;3.80;;;;;;;2.74;67.28;98179.97;10156008;29;20051;-79
2021/03/17 18:40:49;;;;;;;4.97;3.28;;;;;;;2.69;67.02;98178.06;10159936;29;20048;-85
2021/03/17 18:46:10;;;;;;;5.30;3.83;;;;;;;2.52;67.24;98178.41;10152026;29;20051;-83
2021/03/17 18:57:43;;;;;;;;;;;;;;;1.95;68.17;98175.88;10373894;23;20036;31
2021/03/17 19:03:05;;;;;;;6.97;4.40;;;;;;;1.80;68.27;98189.38;10215219;29;19930;-87
2021/03/17 19:08:28;;;;;;;6.60;5.33;;;;;;;1.64;68.76;98190.38;10142734;29;20077;-76
2021/03/17 19:13:48;;;;;;;6.47;5.28;;;;;;;1.52;69.11;98189.06;10127733;29;20045;-77
2021/03/17 19:19:07;;;;;;;9.02;6.47;;;;;;;1.43;68.99;98195.69;10101428;29;20044;-78
2021/03/17 19:24:28;;;;;;;8.32;6.07;;;;;;;1.40;69.41;98197.47;10113191;29;20064;-78
2021/03/17 19:29:49;;;;;;;7.68;5.93;;;;;;;1.44;69.70;98200.66;10127059;29;20048;-77
2021/03/17 19:35:10;;;;;;;6.65;5.20;;;;;;;1.55;70.26;98199.78;10126567;29;20048;-75
2021/03/17 19:40:30;;;;;;;6.95;5.50;;;;;;;1.74;70.04;98194.25;10100902;29;20496;-79
2021/03/17 19:45:50;;;;;;;8.95;6.72;;;;;;;1.94;69.74;98201.19;10113715;29;20044;-78
2021/03/17 19:51:12;;;;;;;9.23;6.63;;;;;;;2.04;69.98;98204.28;10126374;29;20084;-76
2021/03/17 19:57:01;;;;;;;9.63;6.28;;;;;;;2.12;69.69;98216.16;10129385;29;20432;-76
2021/03/17 20:02:59;;;;;;;9.98;6.07;;;;;;;2.13;70.15;98217.66;10131131;29;20052;-75
2021/03/17 20:08:22;;;;;;;8.18;5.55;;;;;;;2.20;70.03;98230.78;10112822;29;20048;-76
2021/03/17 20:13:41;;;;;;;8.02;5.57;;;;;;;2.25;70.16;98232.72;10112415;29;20051;-76
2021/03/17 20:19:15;;;;;;;6.33;5.17;;;;;;;2.26;70.03;98226.69;10102964;29;20049;-78
2021/03/17 20:24:35;;;;;;;6.82;5.10;;;;;;;2.25;69.96;98227.22;10124490;29;20041;-79
2021/03/17 20:29:55;;;;;;;9.23;6.20;;;;;;;2.16;70.10;98227.63;10135244;29;20052;-79
2021/03/17 20:35:15;;;;;;;7.22;5.35;;;;;;;2.04;70.28;98226.31;10109876;29;20515;-79
2021/03/17 20:40:36;;;;;;;7.65;5.28;;;;;;;1.95;70.01;98230.22;10111538;29;20461;-76
2021/03/17 20:46:05;;;;;;;8.95;5.80;;;;;;;1.82;70.48;98243.91;10112789;29;20373;-76
2021/03/17 20:51:25;;;;;;;7.88;5.47;;;;;;;1.64;71.05;98237.16;10111443;29;20044;-76
2021/03/17 20:56:52;;;;;;;8.38;5.22;;;;;;;1.53;71.32;98237.31;10111689;29;20048;-77
2021/03/17 21:02:13;;;;;;;8.55;5.45;;;;;;;1.41;71.16;98245.72;10098163;29;20501;-78
2021/03/17 21:07:33;;;;;;;7.90;5.82;;;;;;;1.34;71.08;98254.56;10110679;29;20045;-77
2021/03/17 21:12:54;;;;;;;9.73;5.78;;;;;;;1.34;71.20;98251.06;10110236;29;20048;-77
2021/03/17 21:18:45;;;;;;;9.93;6.25;;;;;;;1.29;71.95;98243.66;10109587;29;20536;-74
2021/03/17 21:24:06;;;;;;;8.00;5.70;;;;;;;1.38;72.02;98246.78;10137633;29;20041;-85
2021/03/17 21:29:26;;;;;;;8.55;5.72;;;;;;;1.34;71.85;98251.81;11055124;23;20070;-88
2021/03/17 21:41:17;;;;;;;7.00;5.25;;;;;;;0.99;71.91;98247.28;10058093;29;20057;-79
2021/03/17 21:46:37;;;;;;;6.75;4.50;;;;;;;0.87;72.43;98251.41;10044943;29;20078;-79
2021/03/17 21:51:56;;;;;;;8.48;5.30;;;;;;;0.77;72.21;98256.53;10035538;29;20049;-80
2021/03/17 21:57:16;;;;;;;7.65;4.90;;;;;;;0.71;72.27;98253.06;10047575;29;20026;-79
2021/03/17 22:02:36;;;;;;;6.20;4.80;;;;;;;0.63;72.85;98252.16;10048590;29;20049;-82
2021/03/17 22:07:56;;;;;;;9.45;5.65;;;;;;;0.56;72.89;98258.94;10068899;29;20485;-76
2021/03/17 22:13:17;;;;;;;8.07;5.15;;;;;;;0.52;73.26;98257.75;10101148;29;20035;-85
2021/03/17 22:18:47;;;;;;;9.77;5.13;;;;;;;0.53;73.19;98259.25;10457267;23;20505;-79
2021/03/17 22:24:07;;;;;;;7.72;5.15;;;;;;;0.51;73.07;98248.78;10252262;28;20054;-79
2021/03/17 22:29:27;;;;;;;6.15;4.60;;;;;;;0.41;73.23;98253.13;10279340;28;20047;-79
2021/03/17 22:34:46;;;;;;;7.78;5.03;;;;;;;0.36;73.64;98245.66;10265423;28;20089;-80
2021/03/17 22:40:09;;;;;;;7.68;5.10;;;;;;;0.31;73.92;98248.47;10252202;28;20074;-79
2021/03/17 22:45:29;;;;;;;6.63;4.80;;;;;;;0.34;74.09;98252.94;10282013;28;20050;-85
2021/03/17 22:51:04;;;;;;;7.65;4.65;;;;;;;0.42;74.09;98248.38;10276771;28;20043;-78
2021/03/17 22:56:24;;;;;;;8.30;5.07;;;;;;;0.47;73.91;98240.06;10401735;23;20091;-88
2021/03/17 23:01:44;;;;;;;6.20;4.65;;;;;;;0.49;74.03;98236.81;10229562;29;20055;-85
2021/03/17 23:07:04;;;;;;;7.78;4.88;;;;;;;0.52;73.92;98236.53;10167713;29;20047;-79
2021/03/17 23:12:24;;;;;;;5.85;4.32;;;;;;;0.50;73.91;98239.06;10153626;29;20181;-77
2021/03/17 23:17:44;;;;;;;5.85;4.25;;;;;;;0.49;74.12;98231.34;10163279;29;20052;-83
2021/03/17 23:23:04;;;;;;;5.55;4.05;;;;;;;0.48;74.41;98232.56;10162441;29;20119;-78
2021/03/17 23:28:24;;;;;;;6.20;4.57;;;;;;;0.54;74.08;98234.00;10149368;29;20469;-78
2021/03/17 23:33:51;;;;;;;7.57;4.47;;;;;;;0.67;74.47;98241.59;10153057;29;20476;-79
2021/03/17 23:39:16;;;;;;;5.35;3.80;;;;;;;0.80;74.21;98230.75;10171859;29;20396;-74
2021/03/17 23:44:36;;;;;;;5.65;4.43;;;;;;;0.96;74.04;98228.31;10164832;29;20040;-74
2021/03/17 23:49:56;;;;;;;5.60;3.72;;;;;;;1.07;74.05;98233.69;10150596;29;20048;-73
2021/03/17 23:55:21;;;;;;;7.10;4.80;;;;;;;1.19;74.07;98237.03;10137364;29;20132;-74
